sensor_id;sensor_type;location;lat;lon;timestamp;pressure;altitude;pressure_sealevel;temperature;humidity
43153;BME280;28756;49.064;9.290;2023-06-19T21:34:47;98727.44;;;19.09;100.00
43153;BME280;28756;49.064;9.290;2023-06-19T21:37:13;98733.38;;;19.12;100.00
43153;BME280;28756;49.064;9.290;2023-06-19T21:39:39;98736.16;;;19.10;100.00
43153;BME280;28756;49.064;9.290;2023-06-19T21:42:05;98737.28;;;19.07;100.00
43153;BME280;28756;49.064;9.290;2023-06-19T21:44:30;98726.22;;;19.04;100.00
43153;BME280;28756;49.064;9.290;2023-06-19T21:46:56;98723.59;;;19.04;100.00
43153;BME280;28756;49.064;9.290;2023-06-19T21:49:22;98719.56;;;19.00;100.00
43153;BME280;28756;49.064;9.290;2023-06-19T21:51:48;98724.47;;;18.94;100.00
43153;BME280;28756;49.064;9.290;2023-06-19T21:54:13;98715.88;;;18.92;100.00
43153;BME280;28756;49.064;9.290;2023-06-19T21:56:39;98712.81;;;18.87;100.00
43153;BME280;28756;49.064;9.290;2023-06-19T21:59:05;98709.66;;;18.84;100.00
43153;BME280;28756;49.064;9.290;2023-06-19T22:01:33;98709.81;;;18.82;100.00
43153;BME280;28756;49.064;9.290;2023-06-19T22:03:59;98712.56;;;18.81;100.00
43153;BME280;28756;49.064;9.290;2023-06-19T22:06:25;98704.81;;;18.79;100.00
43153;BME280;28756;49.064;9.290;2023-06-19T22:08:50;98703.31;;;18.76;100.00
43153;BME280;28756;49.064;9.290;2023-06-19T22:11:16;98694.72;;;18.74;100.00
43153;BME280;28756;49.064;9.290;2023-06-19T22:13:42;98689.72;;;18.71;100.00
43153;BME280;28756;49.064;9.290;2023-06-19T22:16:08;98686.28;;;18.71;100.00
43153;BME280;28756;49.064;9.290;2023-06-19T22:18:33;98679.50;;;18.68;100.00
43153;BME280;28756;49.064;9.290;2023-06-19T22:20:59;98681.59;;;18.65;100.00
43153;BME280;28756;49.064;9.290;2023-06-19T22:23:26;98684.22;;;18.65;100.00
43153;BME280;28756;49.064;9.290;2023-06-19T22:25:52;98673.97;;;18.61;100.00
43153;BME280;28756;49.064;9.290;2023-06-19T22:28:18;98676.44;;;18.63;100.00
43153;BME280;28756;49.064;9.290;2023-06-19T22:30:44;98670.38;;;18.62;100.00
43153;BME280;28756;49.064;9.290;2023-06-19T22:33:10;98667.75;;;18.62;100.00
43153;BME280;28756;49.064;9.290;2023-06-19T22:35:35;98647.78;;;18.60;100.00
43153;BME280;28756;49.064;9.290;2023-06-19T22:38:01;98647.25;;;18.56;100.00
43153;BME280;28756;49.064;9.290;2023-06-19T22:40:27;98649.03;;;18.56;100.00
43153;BME280;28756;49.064;9.290;2023-06-19T22:42:53;98647.38;;;18.55;100.00
43153;BME280;28756;49.064;9.290;2023-06-19T22:45:18;98651.41;;;18.59;100.00
43153;BME280;28756;49.064;9.290;2023-06-19T22:47:44;98653.06;;;18.60;100.00
43153;BME280;28756;49.064;9.290;2023-06-19T22:50:11;98648.06;;;18.57;100.00
43153;BME280;28756;49.064;9.290;2023-06-19T22:52:37;98651.69;;;18.56;100.00
43153;BME280;28756;49.064;9.290;2023-06-19T22:55:04;98644.91;;;18.53;100.00
43153;BME280;28756;49.064;9.290;2023-06-19T22:57:30;98636.19;;;18.53;100.00
43153;BME280;28756;49.064;9.290;2023-06-19T23:00:10;98640.50;;;18.54;100.00
43153;BME280;28756;49.064;9.290;2023-06-19T23:02:40;98639.63;;;18.53;100.00
43153;BME280;28756;49.064;9.290;2023-06-19T23:05:07;98644.38;;;18.50;100.00
43153;BME280;28756;49.064;9.290;2023-06-19T23:07:33;98644.53;;;18.48;100.00
43153;BME280;28756;49.064;9.290;2023-06-19T23:09:59;98642.16;;;18.45;100.00
43153;BME280;28756;49.064;9.290;2023-06-19T23:12:26;98638.19;;;18.41;100.00
43153;BME280;28756;49.064;9.290;2023-06-19T23:14:51;98635.84;;;18.38;100.00
43153;BME280;28756;49.064;9.290;2023-06-19T23:17:17;98627.25;;;18.36;100.00
43153;BME280;28756;49.064;9.290;2023-06-19T23:19:43;98636.13;;;18.35;100.00
43153;BME280;28756;49.064;9.290;2023-06-19T23:22:09;98636.13;;;18.35;100.00
43153;BME280;28756;49.064;9.290;2023-06-19T23:24:35;58433.56;;;-147.77;100.00
43153;BME280;28756;49.064;9.290;2023-06-19T23:27:01;58433.56;;;-147.77;100.00
43153;BME280;28756;49.064;9.290;2023-06-19T23:29:26;58433.56;;;-147.77;100.00
43153;BME280;28756;49.064;9.290;2023-06-19T23:31:52;98622.19;;;18.24;100.00
43153;BME280;28756;49.064;9.290;2023-06-19T23:34:18;98624.28;;;18.21;100.00
43153;BME280;28756;49.064;9.290;2023-06-19T23:36:44;98624.28;;;18.21;100.00
43153;BME280;28756;49.064;9.290;2023-06-19T23:39:09;98623.03;;;18.15;100.00
43153;BME280;28756;49.064;9.290;2023-06-19T23:41:35;98615.41;;;18.12;100.00
43153;BME280;28756;49.064;9.290;2023-06-19T23:44:01;98615.41;;;18.12;100.00
43153;BME280;28756;49.064;9.290;2023-06-19T23:46:26;98622.78;;;18.08;100.00
43153;BME280;28756;49.064;9.290;2023-06-19T23:48:52;58433.56;;;-147.77;100.00
43153;BME280;28756;49.064;9.290;2023-06-19T23:51:19;58433.56;;;-147.77;100.00
43153;BME280;28756;49.064;9.290;2023-06-19T23:53:45;58433.56;;;-147.77;100.00
43153;BME280;28756;49.064;9.290;2023-06-19T23:56:11;58433.56;;;-147.77;100.00
43153;BME280;28756;49.064;9.290;2023-06-19T23:58:37;58433.56;;;-147.77;100.00
